createdAt,value
2022-08-08T00:01:08.447Z,17.00
2022-08-08T00:03:48.219Z,17.00
2022-08-08T00:06:34.813Z,17.00
2022-08-08T00:09:07.825Z,17.00
2022-08-08T00:11:46.841Z,17.00
2022-08-08T00:14:54.745Z,16.90
2022-08-08T00:18:01.831Z,16.90
2022-08-08T00:20:36.088Z,16.80
2022-08-08T00:23:08.575Z,16.80
2022-08-08T00:25:45.178Z,16.70
2022-08-08T00:28:34.612Z,16.70
2022-08-08T00:32:20.362Z,16.80
2022-08-08T00:34:29.053Z,16.70
2022-08-08T00:37:08.186Z,16.70
2022-08-08T00:41:10.962Z,16.60
2022-08-08T00:43:09.558Z,16.60
2022-08-08T00:46:01.584Z,16.60
2022-08-08T00:49:22.127Z,16.50
2022-08-08T00:52:28.888Z,16.40
2022-08-08T00:55:16.731Z,16.40
2022-08-08T00:58:30.677Z,16.40
2022-08-08T01:01:11.222Z,16.40
2022-08-08T01:04:29.711Z,16.40
2022-08-08T01:07:55.325Z,16.30
2022-08-08T01:11:10.841Z,16.20
2022-08-08T01:14:53.489Z,16.10
2022-08-08T01:17:55.605Z,16.10
2022-08-08T01:20:44.325Z,16.00
2022-08-08T01:24:03.225Z,16.00
2022-08-08T01:27:10.832Z,16.00
2022-08-08T01:30:06.433Z,16.00
2022-08-08T01:33:24.109Z,16.00
2022-08-08T01:36:33.937Z,16.00
2022-08-08T01:39:23.909Z,15.90
2022-08-08T01:42:02.514Z,15.90
2022-08-08T01:44:50.720Z,15.90
2022-08-08T01:48:14.445Z,15.80
2022-08-08T01:50:39.829Z,15.80
2022-08-08T01:55:16.550Z,15.80
2022-08-08T01:56:30.657Z,15.70
2022-08-08T01:59:19.701Z,15.70
2022-08-08T02:02:08.308Z,15.70
2022-08-08T02:04:43.733Z,15.70
2022-08-08T02:07:21.007Z,15.70
2022-08-08T02:10:12.191Z,15.70
2022-08-08T02:12:51.255Z,15.60
2022-08-08T02:15:34.785Z,15.60
2022-08-08T02:18:12.541Z,15.50
2022-08-08T02:21:13.241Z,15.40
2022-08-08T02:23:49.981Z,15.30
2022-08-08T02:26:32.047Z,15.20
2022-08-08T02:29:18.559Z,15.20
2022-08-08T02:32:22.417Z,15.20
2022-08-08T02:35:11.980Z,15.20
2022-08-08T02:38:04.007Z,15.20
2022-08-08T02:40:41.036Z,15.20
2022-08-08T02:44:35.889Z,15.20
2022-08-08T02:47:11.621Z,15.20
2022-08-08T02:50:19.400Z,15.20
2022-08-08T02:53:02.401Z,15.10
2022-08-08T02:56:14.329Z,15.20
2022-08-08T02:59:36.862Z,15.20
2022-08-08T03:02:54.733Z,15.10
2022-08-08T03:05:55.666Z,15.10
2022-08-08T03:09:15.351Z,15.10
2022-08-08T03:12:14.068Z,15.00
2022-08-08T03:15:56.486Z,15.00
2022-08-08T03:18:06.634Z,15.00
2022-08-08T03:20:47.058Z,15.00
2022-08-08T03:23:21.467Z,14.90
2022-08-08T03:25:51.654Z,14.90
2022-08-08T03:28:23.029Z,14.80
2022-08-08T03:31:13.687Z,14.80
2022-08-08T03:33:55.863Z,14.80
2022-08-08T03:36:30.168Z,14.70
2022-08-08T03:39:14.496Z,14.70
2022-08-08T03:42:26.495Z,14.70
2022-08-08T03:44:34.682Z,14.70
2022-08-08T03:47:19.174Z,14.70
2022-08-08T03:49:58.928Z,14.70
2022-08-08T03:52:32.345Z,14.70
2022-08-08T03:55:20.410Z,14.60
2022-08-08T03:58:30.600Z,14.60
2022-08-08T04:00:50.278Z,14.60
2022-08-08T04:03:58.910Z,14.60
2022-08-08T04:06:23.660Z,14.60
2022-08-08T04:08:57.729Z,14.60
2022-08-08T04:11:27.229Z,14.60
2022-08-08T04:14:03.540Z,14.60
2022-08-08T04:16:49.513Z,14.50
2022-08-08T04:19:22.923Z,14.50
2022-08-08T04:21:52.646Z,14.50
2022-08-08T04:24:29.281Z,14.50
2022-08-08T04:27:00.780Z,14.50
2022-08-08T04:29:37.124Z,14.50
2022-08-08T04:32:07.324Z,14.50
2022-08-08T04:34:49.486Z,14.50
2022-08-08T04:37:26.337Z,14.50
2022-08-08T04:40:06.620Z,14.50
2022-08-08T04:42:46.841Z,14.50
2022-08-08T04:45:26.015Z,14.50
2022-08-08T04:47:54.310Z,14.50
2022-08-08T04:50:25.259Z,14.50
2022-08-08T04:53:00.725Z,14.50
2022-08-08T04:55:47.360Z,14.50
2022-08-08T04:58:22.748Z,14.50
2022-08-08T05:00:51.527Z,14.60
2022-08-08T05:04:07.609Z,14.60
2022-08-08T05:06:12.625Z,14.60
2022-08-08T05:08:42.486Z,14.60
2022-08-08T05:11:20.070Z,14.70
2022-08-08T05:13:58.024Z,14.70
2022-08-08T05:16:53.749Z,14.70
2022-08-08T05:20:12.535Z,14.80
2022-08-08T05:22:06.972Z,14.80
2022-08-08T05:24:37.477Z,14.80
2022-08-08T05:27:06.672Z,14.90
2022-08-08T05:29:37.114Z,14.90
2022-08-08T05:32:07.416Z,15.00
2022-08-08T05:34:37.680Z,15.00
2022-08-08T05:37:15.721Z,15.00
2022-08-08T05:39:47.213Z,15.10
2022-08-08T05:42:16.568Z,15.10
2022-08-08T05:44:51.848Z,15.20
2022-08-08T05:47:22.729Z,15.20
2022-08-08T05:49:54.211Z,15.30
2022-08-08T05:52:32.270Z,15.30
2022-08-08T05:55:09.627Z,15.40
2022-08-08T05:58:04.446Z,15.50
2022-08-08T06:00:34.071Z,15.60
2022-08-08T06:03:17.243Z,15.60
2022-08-08T06:05:56.617Z,15.70
2022-08-08T06:08:34.593Z,15.70
2022-08-08T06:11:04.540Z,15.80
2022-08-08T06:13:35.881Z,15.90
2022-08-08T06:16:16.715Z,15.90
2022-08-08T06:18:50.292Z,16.00
2022-08-08T06:21:32.878Z,16.00
2022-08-08T06:24:14.047Z,16.10
2022-08-08T06:27:04.198Z,16.10
2022-08-08T06:29:56.636Z,16.10
2022-08-08T06:32:31.210Z,16.20
2022-08-08T06:36:03.872Z,16.20
2022-08-08T06:37:56.187Z,16.20
2022-08-08T06:40:30.048Z,16.20
2022-08-08T06:43:06.350Z,16.30
2022-08-08T06:45:39.138Z,16.30
2022-08-08T06:48:10.140Z,16.40
2022-08-08T06:50:39.418Z,16.40
2022-08-08T06:53:14.038Z,16.50
2022-08-08T06:55:46.935Z,16.60
2022-08-08T06:58:21.954Z,16.60
2022-08-08T07:00:51.721Z,16.60
2022-08-08T07:03:52.164Z,16.70
2022-08-08T07:06:26.838Z,16.70
2022-08-08T07:08:58.790Z,16.80
2022-08-08T07:11:51.302Z,16.80
2022-08-08T07:14:26.671Z,16.90
2022-08-08T07:17:09.085Z,17.00
2022-08-08T07:19:44.804Z,17.10
2022-08-08T07:22:19.402Z,17.10
2022-08-08T07:24:52.933Z,17.10
2022-08-08T07:27:27.650Z,17.20
2022-08-08T07:30:11.961Z,17.20
2022-08-08T07:32:43.726Z,17.30
2022-08-08T07:35:14.482Z,17.30
2022-08-08T07:37:56.010Z,17.40
2022-08-08T07:40:34.134Z,17.40
2022-08-08T07:43:09.142Z,17.40
2022-08-08T07:45:51.181Z,17.50
2022-08-08T07:48:29.888Z,17.60
2022-08-08T07:51:02.595Z,17.60
2022-08-08T07:54:01.618Z,17.70
2022-08-08T07:56:35.494Z,17.70
2022-08-08T07:59:10.454Z,17.80
2022-08-08T08:02:35.302Z,17.90
2022-08-08T08:04:41.234Z,18.00
2022-08-08T08:07:11.944Z,18.10
2022-08-08T08:09:42.103Z,18.10
2022-08-08T08:12:31.497Z,18.20
2022-08-08T08:15:05.467Z,18.20
2022-08-08T08:17:48.285Z,18.30
2022-08-08T08:20:29.623Z,18.30
2022-08-08T08:23:00.091Z,18.30
2022-08-08T08:25:42.290Z,18.30
2022-08-08T08:28:17.002Z,18.30
2022-08-08T08:30:53.141Z,18.40
2022-08-08T08:33:21.939Z,18.40
2022-08-08T08:36:20.242Z,18.50
2022-08-08T08:38:50.024Z,18.60
2022-08-08T08:41:19.984Z,18.70
2022-08-08T08:43:52.158Z,18.80
2022-08-08T08:46:25.885Z,18.90
2022-08-08T08:48:56.029Z,18.90
2022-08-08T08:51:28.387Z,18.90
2022-08-08T08:54:02.113Z,18.90
2022-08-08T08:56:32.631Z,19.00
2022-08-08T08:59:03.701Z,19.00
2022-08-08T09:01:35.608Z,19.10
2022-08-08T09:04:10.103Z,19.20
2022-08-08T09:06:59.820Z,19.30
2022-08-08T09:09:39.105Z,19.30
2022-08-08T09:12:10.660Z,19.40
2022-08-08T09:14:42.417Z,19.50
2022-08-08T09:17:18.287Z,19.60
2022-08-08T09:22:01.964Z,19.60
2022-08-08T09:22:39.416Z,19.70
2022-08-08T09:25:11.054Z,19.80
2022-08-08T09:27:56.495Z,19.70
2022-08-08T09:30:29.717Z,19.70
2022-08-08T09:33:55.412Z,19.70
2022-08-08T09:35:51.395Z,19.70
2022-08-08T09:38:35.443Z,19.70
2022-08-08T09:41:54.548Z,19.70
2022-08-08T09:44:34.755Z,19.70
2022-08-08T09:47:26.622Z,19.70
2022-08-08T09:50:03.452Z,19.70
2022-08-08T09:52:55.463Z,19.70
2022-08-08T09:55:51.387Z,19.70
2022-08-08T09:58:25.634Z,19.80
2022-08-08T10:00:59.051Z,19.90
2022-08-08T10:03:31.805Z,20.00
2022-08-08T10:06:15.367Z,20.20
2022-08-08T10:08:46.666Z,20.20
2022-08-08T10:12:26.085Z,20.30
2022-08-08T10:14:10.767Z,20.30
2022-08-08T10:16:56.872Z,20.40
2022-08-08T10:19:57.775Z,20.40
2022-08-08T10:22:25.497Z,20.50
2022-08-08T10:25:00.101Z,20.60
2022-08-08T10:27:34.169Z,20.70
2022-08-08T10:30:07.312Z,20.70
2022-08-08T10:32:52.252Z,20.80
2022-08-08T10:36:07.680Z,20.70
2022-08-08T10:38:16.568Z,20.70
2022-08-08T10:40:51.244Z,20.70
2022-08-08T10:43:20.300Z,20.70
2022-08-08T10:45:55.663Z,20.80
2022-08-08T10:48:34.991Z,20.90
2022-08-08T10:51:13.887Z,21.10
2022-08-08T10:53:57.348Z,21.20
2022-08-08T10:56:35.092Z,21.20
2022-08-08T10:59:07.979Z,21.30
2022-08-08T11:01:39.630Z,21.40
2022-08-08T11:04:10.419Z,21.40
2022-08-08T11:06:41.979Z,21.40
2022-08-08T11:09:21.445Z,21.40
2022-08-08T11:12:05.892Z,21.50
2022-08-08T11:14:50.570Z,21.50
2022-08-08T11:17:58.582Z,21.60
2022-08-08T11:20:13.914Z,21.60
2022-08-08T11:22:42.821Z,21.60
2022-08-08T11:25:14.511Z,21.60
2022-08-08T11:27:47.997Z,21.60
2022-08-08T11:30:24.419Z,21.60
2022-08-08T11:32:58.601Z,21.60
2022-08-08T11:35:38.576Z,21.60
2022-08-08T11:38:36.587Z,21.50
2022-08-08T11:41:02.928Z,21.50
2022-08-08T11:43:38.463Z,21.40
2022-08-08T11:46:17.420Z,21.50
2022-08-08T11:48:49.737Z,21.50
2022-08-08T11:51:39.138Z,21.50
2022-08-08T11:54:27.308Z,21.50
2022-08-08T11:56:58.469Z,21.50
2022-08-08T12:00:02.087Z,21.60
2022-08-08T12:02:34.167Z,21.60
2022-08-08T12:05:07.387Z,21.50
2022-08-08T12:07:46.833Z,21.60
2022-08-08T12:10:20.920Z,21.70
2022-08-08T12:12:50.011Z,21.80
2022-08-08T12:15:28.722Z,21.90
2022-08-08T12:17:56.884Z,22.00
2022-08-08T12:20:26.858Z,21.90
2022-08-08T12:22:56.959Z,22.20
2022-08-08T12:25:30.104Z,21.60
2022-08-08T12:28:15.860Z,21.50
2022-08-08T12:30:49.929Z,21.40
2022-08-08T12:33:19.808Z,21.60
2022-08-08T12:35:52.593Z,21.60
2022-08-08T12:38:30.319Z,21.70
2022-08-08T12:41:05.732Z,21.90
2022-08-08T12:43:59.767Z,21.90
2022-08-08T12:46:28.852Z,21.80
2022-08-08T12:49:24.989Z,21.90
2022-08-08T12:51:59.046Z,21.90
2022-08-08T12:54:33.413Z,22.10
2022-08-08T12:57:15.208Z,22.20
2022-08-08T13:00:04.171Z,22.40
2022-08-08T13:02:37.107Z,22.60
2022-08-08T13:05:26.270Z,22.80
2022-08-08T13:08:17.923Z,22.80
2022-08-08T13:10:56.839Z,22.90
2022-08-08T13:13:28.720Z,22.80
2022-08-08T13:16:18.674Z,22.70
2022-08-08T13:18:56.939Z,22.70
2022-08-08T13:21:36.400Z,22.90
2022-08-08T13:24:19.025Z,23.10
2022-08-08T13:27:06.403Z,23.30
2022-08-08T13:29:50.941Z,23.30
2022-08-08T13:32:20.977Z,23.30
2022-08-08T13:34:54.126Z,23.30
2022-08-08T13:37:28.101Z,23.30
2022-08-08T13:40:17.630Z,23.10
2022-08-08T13:42:55.404Z,22.80
2022-08-08T13:45:24.248Z,22.70
2022-08-08T13:47:58.383Z,22.70
2022-08-08T13:50:38.736Z,22.90
2022-08-08T13:53:22.692Z,23.10
2022-08-08T13:56:01.031Z,23.00
2022-08-08T13:58:29.597Z,23.00
2022-08-08T14:00:57.859Z,23.10
2022-08-08T14:03:53.793Z,23.20
2022-08-08T14:06:32.544Z,23.30
2022-08-08T14:09:24.379Z,23.40
2022-08-08T14:11:52.447Z,23.50
2022-08-08T14:14:26.250Z,23.70
2022-08-08T14:16:57.328Z,23.60
2022-08-08T14:19:58.312Z,23.80
2022-08-08T14:22:24.468Z,24.00
2022-08-08T14:24:55.817Z,24.20
2022-08-08T14:27:33.333Z,24.30
2022-08-08T14:30:18.423Z,24.30
2022-08-08T14:32:52.744Z,24.40
2022-08-08T14:35:23.193Z,24.60
2022-08-08T14:37:59.872Z,24.80
2022-08-08T14:40:31.412Z,24.90
2022-08-08T14:43:01.790Z,25.10
2022-08-08T14:46:02.643Z,25.20
2022-08-08T14:48:41.662Z,25.20
2022-08-08T14:51:21.066Z,25.20
2022-08-08T14:53:55.936Z,25.20
2022-08-08T14:56:25.587Z,25.20
2022-08-08T14:58:56.265Z,25.60
2022-08-08T15:01:37.246Z,25.80
2022-08-08T15:04:12.560Z,25.90
2022-08-08T15:06:42.660Z,25.60
2022-08-08T15:09:12.503Z,25.50
2022-08-08T15:11:46.198Z,25.50
2022-08-08T15:14:26.546Z,25.50
2022-08-08T15:16:56.928Z,25.50
2022-08-08T15:19:28.123Z,25.50
2022-08-08T15:21:57.798Z,25.50
2022-08-08T15:24:31.744Z,25.40
2022-08-08T15:27:12.238Z,25.40
2022-08-08T15:29:50.491Z,25.20
2022-08-08T15:32:23.813Z,25.20
2022-08-08T15:34:53.508Z,25.30
2022-08-08T15:37:21.698Z,25.00
2022-08-08T15:39:51.762Z,24.90
2022-08-08T15:42:32.453Z,24.60
2022-08-08T15:45:03.155Z,24.70
2022-08-08T15:47:32.430Z,24.90
2022-08-08T15:50:01.846Z,25.20
2022-08-08T15:52:31.422Z,25.60
2022-08-08T15:55:01.478Z,26.00
2022-08-08T15:57:35.689Z,26.40
2022-08-08T16:00:26.860Z,26.80
2022-08-08T16:02:57.777Z,26.90
2022-08-08T16:05:35.962Z,27.20
2022-08-08T16:08:14.464Z,27.20
2022-08-08T16:13:04.200Z,27.40
2022-08-08T16:13:45.007Z,27.70
2022-08-08T16:16:18.080Z,27.00
2022-08-08T16:18:52.878Z,27.10
2022-08-08T16:21:27.830Z,27.00
2022-08-08T16:23:56.521Z,27.00
2022-08-08T16:26:33.866Z,26.90
2022-08-08T16:29:09.059Z,26.70
2022-08-08T16:31:48.487Z,26.50
2022-08-08T16:34:20.585Z,26.20
2022-08-08T16:36:50.849Z,25.70
2022-08-08T16:39:59.963Z,25.40
2022-08-08T16:42:17.713Z,25.20
2022-08-08T16:44:55.187Z,24.90
2022-08-08T16:47:40.530Z,24.80
2022-08-08T16:50:15.183Z,24.70
2022-08-08T16:55:06.670Z,24.30
2022-08-08T16:55:53.050Z,24.30
2022-08-08T16:58:21.795Z,24.30
2022-08-08T17:00:54.604Z,24.30
2022-08-08T17:03:57.993Z,24.40
2022-08-08T17:06:35.296Z,24.40
2022-08-08T17:09:00.965Z,24.40
2022-08-08T17:11:39.212Z,24.30
2022-08-08T17:14:19.153Z,24.20
2022-08-08T17:16:57.362Z,23.90
2022-08-08T17:19:29.744Z,23.60
2022-08-08T17:22:01.209Z,23.50
2022-08-08T17:24:31.337Z,23.40
2022-08-08T17:27:01.154Z,23.50
2022-08-08T17:29:33.683Z,23.50
2022-08-08T17:32:03.235Z,23.60
2022-08-08T17:34:53.830Z,23.40
2022-08-08T17:37:22.344Z,23.60
2022-08-08T17:40:11.078Z,23.50
2022-08-08T17:42:38.965Z,23.50
2022-08-08T17:45:14.198Z,23.30
2022-08-08T17:47:54.112Z,23.30
2022-08-08T17:50:24.816Z,23.40
2022-08-08T17:52:53.829Z,23.40
2022-08-08T17:56:07.097Z,23.50
2022-08-08T17:58:13.723Z,23.50
2022-08-08T18:00:42.130Z,23.50
2022-08-08T18:03:15.896Z,23.60
2022-08-08T18:05:50.457Z,23.60
2022-08-08T18:08:24.988Z,23.50
2022-08-08T18:11:07.876Z,23.40
2022-08-08T18:13:41.935Z,23.20
2022-08-08T18:16:11.594Z,23.30
2022-08-08T18:18:42.640Z,23.20
2022-08-08T18:21:35.675Z,23.10
2022-08-08T18:24:04.401Z,23.00
2022-08-08T18:26:33.707Z,23.00
2022-08-08T18:29:03.026Z,23.00
2022-08-08T18:31:34.279Z,23.00
2022-08-08T18:34:25.244Z,22.90
2022-08-08T18:36:56.841Z,22.90
2022-08-08T18:39:27.600Z,22.90
2022-08-08T18:42:03.019Z,22.80
2022-08-08T18:44:35.909Z,22.70
2022-08-08T18:47:04.908Z,22.70
2022-08-08T18:49:41.064Z,22.60
2022-08-08T18:52:23.851Z,22.50
2022-08-08T18:54:59.823Z,22.40
2022-08-08T18:57:41.788Z,22.40
2022-08-08T19:00:16.909Z,22.30
2022-08-08T19:02:55.396Z,22.20
2022-08-08T19:05:32.376Z,22.10
2022-08-08T19:08:24.640Z,21.90
2022-08-08T19:10:59.056Z,21.70
2022-08-08T19:13:38.404Z,21.60
2022-08-08T19:16:19.060Z,21.50
2022-08-08T19:18:53.084Z,21.50
2022-08-08T19:21:30.228Z,21.50
2022-08-08T19:24:05.554Z,21.40
2022-08-08T19:26:35.289Z,21.40
2022-08-08T19:29:03.929Z,21.40
2022-08-08T19:31:35.250Z,21.40
2022-08-08T19:34:30.480Z,21.40
2022-08-08T19:36:55.296Z,21.30
2022-08-08T19:39:34.796Z,21.30
2022-08-08T19:42:05.330Z,21.20
2022-08-08T19:44:45.316Z,21.10
2022-08-08T19:47:24.646Z,21.10
2022-08-08T19:50:03.194Z,21.00
2022-08-08T19:52:37.185Z,20.90
2022-08-08T19:55:11.478Z,20.80
2022-08-08T19:57:41.150Z,20.70
2022-08-08T20:00:28.932Z,20.60
2022-08-08T20:02:58.565Z,20.50
2022-08-08T20:06:13.503Z,20.50
2022-08-08T20:08:28.279Z,20.40
2022-08-08T20:11:01.666Z,20.40
2022-08-08T20:14:12.079Z,20.30
2022-08-08T20:16:18.434Z,20.30
2022-08-08T20:18:53.314Z,20.20
2022-08-08T20:21:25.452Z,20.20
2022-08-08T20:23:58.215Z,20.10
2022-08-08T20:26:33.398Z,20.10
2022-08-08T20:29:03.178Z,20.00
2022-08-08T20:32:08.015Z,19.90
2022-08-08T20:34:29.652Z,19.90
2022-08-08T20:37:00.717Z,19.80
2022-08-08T20:39:39.574Z,19.80
2022-08-08T20:42:20.428Z,19.70
2022-08-08T20:44:56.668Z,19.70
2022-08-08T20:47:26.019Z,19.60
2022-08-08T20:49:57.730Z,19.60
2022-08-08T20:52:29.084Z,19.60
2022-08-08T20:54:57.657Z,19.50
2022-08-08T20:57:27.953Z,19.40
2022-08-08T20:59:56.688Z,19.40
2022-08-08T21:02:26.167Z,19.40
2022-08-08T21:04:57.343Z,19.30
2022-08-08T21:07:47.839Z,19.30
2022-08-08T21:10:17.717Z,19.30
2022-08-08T21:12:52.922Z,19.30
2022-08-08T21:16:05.453Z,19.20
2022-08-08T21:18:11.566Z,19.20
2022-08-08T21:20:41.962Z,19.10
2022-08-08T21:23:13.082Z,19.10
2022-08-08T21:25:49.044Z,19.00
2022-08-08T21:28:19.356Z,18.90
2022-08-08T21:31:22.360Z,18.90
2022-08-08T21:33:52.269Z,18.90
2022-08-08T21:36:28.845Z,18.90
2022-08-08T21:38:58.052Z,18.90
2022-08-08T21:41:38.150Z,18.80
2022-08-08T21:44:13.353Z,18.80
2022-08-08T21:48:08.061Z,18.70
2022-08-08T21:49:31.573Z,18.70
2022-08-08T21:54:31.566Z,18.70
2022-08-08T21:55:02.068Z,18.70
2022-08-08T21:57:42.425Z,18.60
2022-08-08T22:00:14.800Z,18.60
2022-08-08T22:02:44.124Z,18.50
2022-08-08T22:05:14.759Z,18.50
2022-08-08T22:07:47.429Z,18.50
2022-08-08T22:10:28.720Z,18.50
2022-08-08T22:13:18.943Z,18.50
2022-08-08T22:15:59.642Z,18.50
2022-08-08T22:18:31.009Z,18.40
2022-08-08T22:21:01.566Z,18.40
2022-08-08T22:23:41.073Z,18.30
2022-08-08T22:26:29.116Z,18.30
2022-08-08T22:29:13.855Z,18.20
2022-08-08T22:31:58.398Z,18.20
2022-08-08T22:34:30.825Z,18.20
2022-08-08T22:36:59.611Z,18.20
2022-08-08T22:39:28.302Z,18.10
2022-08-08T22:42:10.124Z,18.10
2022-08-08T22:44:38.336Z,18.00
2022-08-08T22:47:16.707Z,18.00
2022-08-08T22:49:53.983Z,18.00
2022-08-08T22:52:33.527Z,17.90
2022-08-08T22:55:05.418Z,17.90
2022-08-08T22:57:44.461Z,17.90
2022-08-08T23:00:18.529Z,17.90
2022-08-08T23:02:50.325Z,17.80
2022-08-08T23:05:21.519Z,17.80
2022-08-08T23:07:57.037Z,17.70
2022-08-08T23:10:27.733Z,17.70
2022-08-08T23:12:56.453Z,17.70
2022-08-08T23:16:40.003Z,17.60
2022-08-08T23:18:14.690Z,17.60
2022-08-08T23:20:44.446Z,17.60
2022-08-08T23:23:23.011Z,17.60
2022-08-08T23:25:51.267Z,17.60
2022-08-08T23:28:19.612Z,17.50
2022-08-08T23:30:48.115Z,17.50
2022-08-08T23:33:21.055Z,17.50
2022-08-08T23:36:09.238Z,17.50
2022-08-08T23:38:44.247Z,17.50
2022-08-08T23:41:24.760Z,17.50
2022-08-08T23:43:56.424Z,17.40
2022-08-08T23:49:01.450Z,17.40
2022-08-08T23:49:18.881Z,17.40
2022-08-08T23:52:06.471Z,17.30
2022-08-08T23:54:41.828Z,17.30
2022-08-08T23:57:27.735Z,17.20
